Time;durP1;ratioP1;P1;durP2;ratioP2;P2;SDS_P1;SDS_P2;PMS_P1;PMS_P2;Temp;Humidity;BMP_temperature;BMP_pressure;BME280_temperature;BME280_humidity;BME280_pressure;Samples;Min_cycle;Max_cycle;Signal;HPM_P1;HPM_P2
2021/11/15 00:02:22;;;;;;;53.30;24.15;;;;;;;5.38;100.00;95629.03;5082757;28;20044;-69
2021/11/15 00:04:51;;;;;;;72.97;37.30;;;;;;;5.50;100.00;95627.59;5082998;28;20128;-69
2021/11/15 00:07:18;;;;;;;48.83;25.77;;;;;;;5.41;100.00;95618.34;5085933;28;20040;-69
2021/11/15 00:09:45;;;;;;;52.97;25.02;;;;;;;5.45;100.00;95624.75;5087532;28;20405;-69
2021/11/15 00:12:13;;;;;;;43.45;21.50;;;;;;;5.46;100.00;95616.03;5084377;28;20047;-70
2021/11/15 00:14:40;;;;;;;47.90;21.05;;;;;;;5.47;100.00;95607.28;5082174;28;20047;-69
2021/11/15 00:17:07;;;;;;;46.25;22.60;;;;;;;5.59;100.00;95609.44;5085152;28;20117;-69
2021/11/15 00:19:34;;;;;;;52.00;22.58;;;;;;;5.54;100.00;95626.25;5064885;28;20052;-69
2021/11/15 00:22:01;;;;;;;47.65;23.10;;;;;;;5.64;100.00;95617.47;5088939;28;20052;-69
2021/11/15 00:24:27;;;;;;;45.92;21.35;;;;;;;5.65;100.00;95612.09;5089907;28;20108;-69
2021/11/15 00:26:54;;;;;;;50.83;22.83;;;;;;;5.62;100.00;95614.22;5083111;28;20060;-69
2021/11/15 00:29:21;;;;;;;37.42;20.75;;;;;;;5.62;100.00;95616.81;5087424;28;20485;-69
2021/11/15 00:31:48;;;;;;;42.13;18.88;;;;;;;5.26;100.00;95604.66;5086494;28;20032;-68
2021/11/15 00:34:15;;;;;;;41.88;17.95;;;;;;;5.28;100.00;95613.03;5082425;28;20040;-68
2021/11/15 00:36:42;;;;;;;38.42;18.42;;;;;;;5.26;100.00;95625.31;5086764;28;20486;-68
2021/11/15 00:39:08;;;;;;;41.22;19.83;;;;;;;5.20;100.00;95618.25;5090184;28;20043;-69
2021/11/15 00:41:36;;;;;;;40.60;18.48;;;;;;;5.38;100.00;95623.88;5088277;28;20558;-69
2021/11/15 00:44:03;;;;;;;33.35;14.93;;;;;;;5.55;100.00;95614.97;5089179;28;20044;-69
2021/11/15 00:46:30;;;;;;;28.02;15.13;;;;;;;5.49;100.00;95620.84;5093326;28;20036;-68
2021/11/15 00:48:57;;;;;;;31.50;15.52;;;;;;;5.67;100.00;95617.06;5090179;28;20042;-68
2021/11/15 00:51:28;;;;;;;31.00;15.70;;;;;;;5.61;100.00;95623.78;5091951;28;20048;-69
2021/11/15 00:53:57;;;;;;;28.27;15.45;;;;;;;5.63;100.00;95621.00;5090991;28;20040;-68
2021/11/15 00:56:25;;;;;;;26.30;13.60;;;;;;;5.70;100.00;95606.38;5089295;28;20059;-69
2021/11/15 00:58:52;;;;;;;23.27;11.50;;;;;;;5.66;100.00;95620.66;5084225;28;20047;-69
2021/11/15 01:01:19;;;;;;;25.75;13.20;;;;;;;5.35;100.00;95619.09;5093940;28;20047;-69
2021/11/15 01:03:47;;;;;;;34.38;16.38;;;;;;;5.25;100.00;95613.38;5071525;28;20112;-69
2021/11/15 01:06:15;;;;;;;29.88;14.13;;;;;;;5.15;100.00;95601.53;5088118;28;20051;-68
2021/11/15 01:08:42;;;;;;;28.25;13.45;;;;;;;5.21;100.00;95602.59;5088682;28;20728;-69
2021/11/15 01:11:10;;;;;;;25.25;12.98;;;;;;;5.09;100.00;95615.13;5086593;28;20063;-68
2021/11/15 01:13:40;;;;;;;30.13;14.52;;;;;;;5.39;100.00;95615.16;5069645;28;20058;-69
2021/11/15 01:16:09;;;;;;;27.88;14.07;;;;;;;5.39;100.00;95620.31;5089950;28;20036;-69
2021/11/15 01:18:41;;;;;;;27.08;13.43;;;;;;;5.15;100.00;95619.59;5087293;28;20063;-69
2021/11/15 01:21:08;;;;;;;26.13;12.70;;;;;;;5.03;100.00;95610.69;5096361;28;21675;-69
2021/11/15 01:23:36;;;;;;;29.38;14.57;;;;;;;5.04;100.00;95612.31;5088318;28;20039;-69
2021/11/15 01:26:04;;;;;;;32.47;15.85;;;;;;;5.14;100.00;95612.81;5088533;28;20520;-69
2021/11/15 01:28:31;;;;;;;37.67;16.25;;;;;;;5.30;100.00;95601.53;5088768;28;20058;-68
2021/11/15 01:30:58;;;;;;;28.73;14.88;;;;;;;5.28;100.00;95607.84;5095115;28;20051;-68
2021/11/15 01:33:25;;;;;;;27.88;13.15;;;;;;;5.28;100.00;95613.03;5097065;28;20035;-68
2021/11/15 01:35:52;;;;;;;30.80;15.40;;;;;;;5.34;100.00;95612.28;5086757;28;20520;-68
2021/11/15 01:38:19;;;;;;;30.90;14.65;;;;;;;5.39;100.00;95609.97;5089244;28;20048;-68
2021/11/15 01:40:46;;;;;;;42.85;21.48;;;;;;;5.48;100.00;95614.06;5095903;28;20066;-69
2021/11/15 01:43:13;;;;;;;34.38;14.80;;;;;;;5.40;100.00;95606.41;5089798;28;20039;-69
2021/11/15 01:45:40;;;;;;;34.17;16.13;;;;;;;5.45;100.00;95614.41;5069060;28;20513;-68
2021/11/15 01:48:09;;;;;;;28.35;14.48;;;;;;;5.53;100.00;95616.91;5094994;28;20477;-69
2021/11/15 01:50:37;;;;;;;28.35;15.35;;;;;;;5.28;100.00;95613.03;5088288;28;20044;-69
2021/11/15 01:53:07;;;;;;;28.58;13.95;;;;;;;5.34;100.00;95612.28;5098317;28;20040;-69
2021/11/15 01:55:36;;;;;;;31.70;15.52;;;;;;;5.41;100.00;95610.59;5096942;28;20063;-69
2021/11/15 01:58:07;;;;;;;27.95;14.20;;;;;;;5.75;100.00;95606.66;5090369;28;20405;-69
2021/11/15 02:00:42;;;;;;;27.00;13.80;;;;;;;5.89;100.00;95605.81;5091957;28;20040;-69
2021/11/15 02:03:09;;;;;;;;;;;;;;;5.68;100.00;95600.59;5087626;28;20040;-69
2021/11/15 02:05:36;;;;;;;26.23;13.75;;;;;;;5.40;100.00;95603.81;5092435;28;19927;-69
2021/11/15 02:08:04;;;;;;;27.75;14.55;;;;;;;5.65;100.00;95598.38;5091094;28;20039;-69
2021/11/15 02:10:31;;;;;;;31.52;14.20;;;;;;;5.59;100.00;95601.69;5092708;28;20060;-69
2021/11/15 02:12:58;;;;;;;29.33;14.38;;;;;;;5.37;100.00;95601.63;5088702;28;20047;-68
2021/11/15 02:15:25;;;;;;;28.23;14.30;;;;;;;5.51;100.00;95593.06;5088279;28;20580;-69
2021/11/15 02:17:52;;;;;;;31.92;13.40;;;;;;;5.64;100.00;95581.28;5094072;28;20110;-69
2021/11/15 02:20:21;;;;;;;30.10;14.80;;;;;;;5.69;100.00;95581.50;5087687;28;20044;-68
2021/11/15 02:22:49;;;;;;;30.95;15.13;;;;;;;5.61;100.00;95597.13;5089119;28;20117;-69
2021/11/15 02:25:19;;;;;;;31.85;15.98;;;;;;;5.69;100.00;95594.44;5089494;28;20077;-69
2021/11/15 02:27:47;;;;;;;29.65;14.05;;;;;;;5.67;100.00;95602.38;5093612;28;20042;-69
2021/11/15 02:30:21;;;;;;;37.85;15.68;;;;;;;5.95;100.00;95599.09;5098050;28;20059;-68
2021/11/15 02:32:48;;;;;;;38.23;16.47;;;;;;;5.94;100.00;95608.66;5095022;28;20040;-68
2021/11/15 02:35:16;;;;;;;32.83;15.00;;;;;;;6.12;98.96;95600.53;5072036;28;20040;-69
2021/11/15 02:37:44;;;;;;;32.42;15.70;;;;;;;6.19;98.22;95595.38;5100161;28;20043;-69
2021/11/15 02:40:14;;;;;;;37.88;17.20;;;;;;;6.17;97.76;95601.75;5092139;28;20044;-68
2021/11/15 02:42:41;;;;;;;36.10;15.80;;;;;;;6.23;96.64;95607.00;5084041;28;20051;-68
2021/11/15 02:45:10;;;;;;;40.33;16.35;;;;;;;6.03;97.04;95603.38;5091313;28;20054;-69
2021/11/15 02:47:37;;;;;;;36.42;16.73;;;;;;;5.97;97.07;95606.72;5092897;28;20048;-69
2021/11/15 02:50:06;;;;;;;35.95;17.23;;;;;;;5.66;98.91;95611.13;5086752;28;20050;-68
2021/11/15 02:52:34;;;;;;;52.42;22.05;;;;;;;5.78;98.88;95614.03;5091811;28;20044;-69
2021/11/15 02:55:01;;;;;;;42.50;18.88;;;;;;;5.92;98.26;95604.63;5094652;28;20460;-68
2021/11/15 02:57:28;;;;;;;39.65;17.65;;;;;;;5.98;97.34;95608.31;5095700;28;20046;-69
2021/11/15 02:59:55;;;;;;;35.58;17.65;;;;;;;5.89;97.37;95605.81;5075905;28;20140;-68
2021/11/15 03:02:23;;;;;;;38.25;18.98;;;;;;;5.87;97.10;95605.19;5087617;28;20044;-69
2021/11/15 03:04:51;;;;;;;35.70;18.00;;;;;;;6.01;97.01;95613.13;5089653;28;20048;-69
2021/11/15 03:07:18;;;;;;;40.28;19.30;;;;;;;5.99;97.04;95615.09;5091843;28;20042;-69
2021/11/15 03:09:45;;;;;;;40.13;19.73;;;;;;;6.04;97.58;95607.59;5088866;28;20058;-69
2021/11/15 03:12:12;;;;;;;32.75;17.30;;;;;;;6.12;96.85;95610.03;5088482;28;20043;-68
2021/11/15 03:14:39;;;;;;;45.58;21.08;;;;;;;6.13;97.12;95611.66;5087819;28;20039;-70
2021/11/15 03:17:06;;;;;;;41.05;20.17;;;;;;;6.20;96.57;95612.53;5090667;28;20446;-69
2021/11/15 03:19:33;;;;;;;43.47;19.50;;;;;;;6.18;95.74;95609.31;5100345;27;20051;-69
2021/11/15 03:22:00;;;;;;;43.58;20.38;;;;;;;6.26;95.76;95606.59;5079723;28;20062;-69
2021/11/15 03:24:27;;;;;;;36.20;19.17;;;;;;;6.08;95.06;95583.75;5085349;28;20040;-68
2021/11/15 03:26:54;;;;;;;39.97;19.27;;;;;;;6.18;94.88;95614.50;5097597;28;20092;-69
2021/11/15 03:29:21;;;;;;;45.75;22.67;;;;;;;6.14;95.41;95613.28;5092947;28;20479;-68
2021/11/15 03:31:47;;;;;;;49.28;22.95;;;;;;;6.09;95.98;95610.44;5091266;28;20055;-68
2021/11/15 03:34:15;;;;;;;54.95;25.98;;;;;;;5.97;97.05;95611.88;5079403;28;20043;-68
2021/11/15 03:36:43;;;;;;;58.65;25.30;;;;;;;5.83;98.24;95606.53;5065963;28;20040;-68
2021/11/15 03:39:12;;;;;;;51.90;24.17;;;;;;;5.79;98.09;95605.28;5087590;28;20047;-69
2021/11/15 03:41:41;;;;;;;58.63;25.27;;;;;;;5.75;98.17;95598.88;5083045;28;20499;-68
2021/11/15 03:44:09;;;;;;;57.40;25.75;;;;;;;5.86;98.29;95615.72;5071720;28;20047;-68
2021/11/15 03:46:36;;;;;;;77.30;30.23;;;;;;;5.82;98.16;95615.28;5090410;28;20553;-68
2021/11/15 03:49:03;;;;;;;125.22;41.97;;;;;;;5.62;98.24;95609.06;5087399;28;20044;-69
2021/11/15 03:51:31;;;;;;;81.82;33.00;;;;;;;5.50;99.62;95609.53;5087112;28;20055;-69
2021/11/15 03:53:57;;;;;;;77.35;32.75;;;;;;;5.50;100.00;95614.69;5086877;28;20037;-70
2021/11/15 03:56:27;;;;;;;63.17;26.95;;;;;;;5.49;100.00;95620.84;5103365;28;20048;-69
2021/11/15 03:58:56;;;;;;;58.35;25.95;;;;;;;5.39;100.00;95609.97;5092820;28;20569;-69
2021/11/15 04:01:28;;;;;;;66.43;29.60;;;;;;;5.29;100.00;95614.59;5091741;28;20040;-69
2021/11/15 04:03:59;;;;;;;75.47;32.05;;;;;;;5.18;100.00;95610.69;5087544;28;20416;-69
2021/11/15 04:06:29;;;;;;;62.70;28.95;;;;;;;5.13;100.00;95618.97;5086751;28;20036;-69
2021/11/15 04:08:58;;;;;;;64.85;29.73;;;;;;;5.01;100.00;95607.47;5083938;28;20036;-69
2021/11/15 04:11:29;;;;;;;59.05;28.08;;;;;;;4.95;100.00;95608.16;5090475;28;20044;-68
2021/11/15 04:14:02;;;;;;;78.03;32.35;;;;;;;5.00;100.00;95615.41;5094840;28;20047;-68
2021/11/15 04:16:29;;;;;;;71.40;30.38;;;;;;;4.74;100.00;95612.25;5090362;28;22132;-68
2021/11/15 04:19:00;;;;;;;76.03;31.52;;;;;;;4.89;100.00;95619.22;5086642;28;20048;-68
2021/11/15 04:21:30;;;;;;;76.45;33.38;;;;;;;4.78;100.00;95613.50;5095331;28;20050;-69
2021/11/15 04:23:57;;;;;;;68.30;29.67;;;;;;;4.88;100.00;95622.75;5086945;28;20044;-68
2021/11/15 04:26:24;;;;;;;71.07;29.75;;;;;;;4.94;100.00;95627.25;5087533;28;20040;-69
2021/11/15 04:28:51;;;;;;;63.00;27.27;;;;;;;4.99;100.00;95619.78;5090555;28;20433;-69
2021/11/15 04:31:18;;;;;;;65.50;28.08;;;;;;;4.97;100.00;95616.56;5093397;28;20051;-69
2021/11/15 04:33:45;;;;;;;60.47;27.50;;;;;;;4.89;100.00;95621.78;5087873;28;20488;-69
2021/11/15 04:36:12;;;;;;;65.82;27.92;;;;;;;4.85;100.00;95612.81;5089571;28;20573;-68
2021/11/15 04:38:38;;;;;;;55.75;27.23;;;;;;;4.91;100.00;95612.09;5096679;28;20040;-68
2021/11/15 04:41:05;;;;;;;59.15;26.08;;;;;;;4.93;100.00;95617.88;5090676;28;20044;-68
2021/11/15 04:43:32;;;;;;;69.38;26.80;;;;;;;4.97;100.00;95621.72;5091385;28;20068;-68
2021/11/15 04:45:59;;;;;;;58.40;27.73;;;;;;;4.96;100.00;95620.13;5091391;28;20040;-69
2021/11/15 04:48:26;;;;;;;58.03;27.42;;;;;;;4.97;100.00;95621.72;5092318;28;20049;-68
2021/11/15 04:50:54;;;;;;;61.17;26.83;;;;;;;4.97;100.00;95626.91;5099563;28;20044;-68
2021/11/15 04:53:20;;;;;;;62.03;28.10;;;;;;;4.90;100.00;95631.16;5091409;28;20047;-67
2021/11/15 04:55:47;;;;;;;56.60;26.40;;;;;;;4.92;100.00;95629.19;5092910;28;20046;-67
2021/11/15 04:58:15;;;;;;;60.63;27.42;;;;;;;4.93;100.00;95620.47;5091892;28;20028;-68
2021/11/15 05:00:42;;;;;;;64.15;27.70;;;;;;;4.94;100.00;95627.25;5088892;28;20044;-67
2021/11/15 05:03:09;;;;;;;58.17;25.38;;;;;;;5.03;100.00;95641.66;5097320;28;20114;-68
2021/11/15 05:05:37;;;;;;;52.42;25.38;;;;;;;5.01;100.00;95638.47;5089005;28;20036;-67
2021/11/15 05:08:04;;;;;;;61.72;27.55;;;;;;;5.02;100.00;95645.22;5084320;28;20032;-68
2021/11/15 05:10:31;;;;;;;69.43;30.15;;;;;;;4.95;100.00;95636.56;5077262;28;20058;-68
2021/11/15 05:13:01;;;;;;;69.35;28.92;;;;;;;5.04;99.94;95648.44;5091515;28;20582;-67
2021/11/15 05:15:29;;;;;;;60.63;28.40;;;;;;;5.00;99.92;95657.50;5085978;28;20385;-68
2021/11/15 05:17:56;;;;;;;72.28;27.58;;;;;;;5.03;99.27;95661.53;5086625;28;20043;-68
2021/11/15 05:20:23;;;;;;;76.90;31.10;;;;;;;4.97;99.55;95674.16;5089863;28;20058;-67
2021/11/15 05:22:51;;;;;;;64.60;29.10;;;;;;;4.62;100.00;95672.97;5087981;28;20062;-68
2021/11/15 05:25:19;;;;;;;66.07;29.70;;;;;;;4.53;100.00;95674.03;5086416;28;20051;-68
2021/11/15 05:27:46;;;;;;;62.08;28.40;;;;;;;4.59;100.00;95675.91;5086995;28;20091;-68
2021/11/15 05:30:16;;;;;;;67.07;31.20;;;;;;;4.68;100.00;95674.88;5095278;28;20046;-67
2021/11/15 05:32:43;;;;;;;63.42;30.08;;;;;;;4.71;100.00;95669.34;5090326;28;20044;-68
2021/11/15 05:35:10;;;;;;;69.05;29.05;;;;;;;4.75;100.00;95670.63;5092503;28;20058;-68
2021/11/15 05:37:37;;;;;;;64.82;27.60;;;;;;;4.67;100.00;95660.38;5088469;28;20452;-68
2021/11/15 05:40:05;;;;;;;57.38;28.02;;;;;;;4.45;100.00;95669.72;5085418;28;20051;-67
2021/11/15 05:42:32;;;;;;;72.82;30.30;;;;;;;4.36;100.00;95681.88;5112046;27;20455;-68
2021/11/15 05:45:00;;;;;;;66.15;29.63;;;;;;;4.23;100.00;95691.94;5076486;28;20101;-68
2021/11/15 05:47:27;;;;;;;62.08;28.85;;;;;;;4.32;100.00;95685.78;5086475;28;20028;-68
2021/11/15 05:49:54;;;;;;;63.17;29.67;;;;;;;4.33;100.00;95687.38;5071620;28;20039;-68
2021/11/15 05:52:23;;;;;;;61.63;27.40;;;;;;;4.33;100.00;95687.38;5085869;28;20047;-68
2021/11/15 05:54:51;;;;;;;72.75;31.60;;;;;;;4.43;100.00;95696.66;5095837;28;20050;-68
2021/11/15 05:57:19;;;;;;;61.17;31.73;;;;;;;4.38;100.00;95689.44;5084969;28;20119;-67
2021/11/15 05:59:47;;;;;;;71.07;32.38;;;;;;;4.18;100.00;95689.06;5089660;28;20040;-67
2021/11/15 06:02:15;;;;;;;72.35;31.98;;;;;;;4.16;100.00;95714.19;5096664;28;20040;-68
2021/11/15 06:04:42;;;;;;;68.05;29.60;;;;;;;3.95;100.00;95689.81;5084661;28;20094;-68
2021/11/15 06:07:09;;;;;;;65.68;27.13;;;;;;;4.07;100.00;95702.31;5083686;28;20036;-68
2021/11/15 06:09:36;;;;;;;96.22;41.13;;;;;;;4.02;100.00;95716.53;5089672;28;20059;-67
2021/11/15 06:12:03;;;;;;;86.70;42.78;;;;;;;4.19;100.00;95711.28;5086887;28;20044;-68
2021/11/15 06:14:30;;;;;;;67.13;31.23;;;;;;;4.33;100.00;95718.31;5087562;28;20417;-68
2021/11/15 06:16:56;;;;;;;60.67;30.08;;;;;;;4.45;100.00;95705.00;5088165;28;20684;-67
2021/11/15 06:19:23;;;;;;;59.65;29.20;;;;;;;4.22;100.00;95721.28;5084943;28;20044;-68
2021/11/15 06:21:50;;;;;;;65.43;29.50;;;;;;;4.20;100.00;95723.22;5086719;28;20048;-68
2021/11/15 06:24:17;;;;;;;73.30;30.83;;;;;;;4.16;100.00;95727.91;5088407;28;20043;-67
2021/11/15 06:26:44;;;;;;;72.43;31.05;;;;;;;3.99;100.00;95722.00;5083865;28;20048;-68
2021/11/15 06:29:11;;;;;;;63.78;31.17;;;;;;;3.98;100.00;95725.56;5090432;28;20036;-68
2021/11/15 06:31:38;;;;;;;76.82;30.67;;;;;;;3.85;100.00;95714.19;5090582;28;20443;-68
2021/11/15 06:34:05;;;;;;;82.90;34.65;;;;;;;3.96;100.00;95727.53;5086248;28;20481;-68
2021/11/15 06:36:32;;;;;;;56.63;30.05;;;;;;;3.97;100.00;95728.31;5087122;28;20052;-68
2021/11/15 06:38:59;;;;;;;70.70;30.23;;;;;;;3.96;100.00;95732.69;5089761;28;20102;-68
2021/11/15 06:41:26;;;;;;;73.80;33.63;;;;;;;3.90;100.00;95728.19;5085001;28;20052;-68
2021/11/15 06:43:53;;;;;;;77.95;34.30;;;;;;;4.04;100.00;95733.63;5083826;28;20043;-69
2021/11/15 06:46:29;;;;;;;64.68;29.25;;;;;;;4.08;100.00;95730.53;5090390;28;20118;-68
2021/11/15 06:48:56;;;;;;;67.93;32.83;;;;;;;4.09;100.00;95736.47;5093617;28;20043;-67
2021/11/15 06:51:41;;;;;;;68.72;34.33;;;;;;;4.15;100.00;95735.81;5083571;28;20048;-68
2021/11/15 06:54:18;;;;;;;75.18;35.15;;;;;;;4.11;100.00;95729.41;5071636;28;20044;-67
2021/11/15 06:56:45;;;;;;;73.03;28.45;;;;;;;4.14;100.00;95736.78;5088375;28;20052;-68
2021/11/15 06:59:12;;;;;;;65.70;30.05;;;;;;;4.24;100.00;95739.16;5091036;28;20043;-67
2021/11/15 07:01:39;;;;;;;88.57;35.85;;;;;;;4.22;100.00;95736.75;5090249;28;20035;-68
2021/11/15 07:04:08;;;;;;;75.20;35.95;;;;;;;4.27;100.00;95744.78;5085952;28;20044;-68
2021/11/15 07:06:37;;;;;;;75.53;30.98;;;;;;;4.39;100.00;95742.63;5085445;28;20040;-68
2021/11/15 07:09:06;;;;;;;67.95;31.23;;;;;;;4.54;100.00;95734.97;5089622;28;20172;-68
2021/11/15 07:11:34;;;;;;;63.40;31.52;;;;;;;4.56;100.00;95722.69;5086630;28;20085;-68
2021/11/15 07:14:03;;;;;;;58.85;28.75;;;;;;;4.73;100.00;95736.28;5090857;28;20048;-68
2021/11/15 07:16:30;;;;;;;57.75;27.30;;;;;;;4.67;100.00;95704.25;5087986;28;20497;-68
2021/11/15 07:18:57;;;;;;;62.15;28.95;;;;;;;4.95;100.00;95732.09;5082783;28;20048;-68
2021/11/15 07:21:25;;;;;;;64.82;30.92;;;;;;;5.05;100.00;95732.66;5089073;28;20525;-68
2021/11/15 07:23:52;;;;;;;62.92;28.23;;;;;;;5.06;100.00;95736.88;5085878;28;20052;-68
2021/11/15 07:26:19;;;;;;;51.65;25.77;;;;;;;5.19;100.00;95723.34;5089480;28;20044;-68
2021/11/15 07:28:46;;;;;;;56.92;25.80;;;;;;;5.34;100.00;95729.34;5086330;28;20040;-68
2021/11/15 07:31:13;;;;;;;61.97;25.23;;;;;;;5.49;100.00;95728.56;5083516;28;20032;-68
2021/11/15 07:33:40;;;;;;;48.33;24.02;;;;;;;5.72;100.00;95728.47;5090345;28;20043;-68
2021/11/15 07:36:08;;;;;;;39.92;20.23;;;;;;;5.91;100.00;95722.78;5089598;28;20047;-67
2021/11/15 07:38:35;;;;;;;35.50;17.65;;;;;;;6.13;100.00;95721.09;5081758;28;20047;-68
2021/11/15 07:41:02;;;;;;;50.88;28.63;;;;;;;6.26;100.00;95725.59;5086489;28;20044;-68
2021/11/15 07:43:29;;;;;;;45.38;20.92;;;;;;;6.44;100.00;95721.81;5087129;28;20123;-68
2021/11/15 07:45:56;;;;;;;40.00;20.02;;;;;;;6.63;100.00;95731.59;5084121;28;20678;-68
2021/11/15 07:48:23;;;;;;;46.03;22.80;;;;;;;6.76;100.00;95724.94;5080801;28;20044;-68
2021/11/15 07:50:50;;;;;;;46.47;22.45;;;;;;;6.85;100.00;95729.00;5081905;28;20055;-68
2021/11/15 07:53:17;;;;;;;52.53;27.02;;;;;;;6.97;100.00;95732.72;5089322;28;20054;-68
2021/11/15 07:55:43;;;;;;;55.15;25.50;;;;;;;6.92;100.00;95719.50;5089833;28;20043;-68
2021/11/15 07:58:11;;;;;;;50.08;25.08;;;;;;;7.15;100.00;95736.63;5084749;28;20413;-68
2021/11/15 08:00:38;;;;;;;67.35;30.02;;;;;;;7.28;100.00;95726.38;5066954;28;20052;-69
2021/11/15 08:03:06;;;;;;;59.63;28.77;;;;;;;7.33;100.00;95716.25;5084761;28;20040;-69
2021/11/15 08:05:35;;;;;;;53.38;24.90;;;;;;;7.47;100.00;95733.50;5065194;28;20048;-68
2021/11/15 08:08:02;;;;;;;53.78;25.35;;;;;;;7.50;100.00;95726.34;5088592;28;20062;-68
2021/11/15 08:10:29;;;;;;;58.70;28.80;;;;;;;7.65;100.00;95734.78;5085703;28;20044;-68
2021/11/15 08:12:58;;;;;;;59.40;32.28;;;;;;;7.85;98.87;95727.94;5082360;28;20425;-68
2021/11/15 08:15:26;;;;;;;50.55;27.85;;;;;;;7.90;99.34;95731.75;5081404;28;20055;-68
2021/11/15 08:17:58;;;;;;;52.60;26.05;;;;;;;7.98;98.83;95724.63;5084691;28;20063;-67
2021/11/15 08:20:30;;;;;;;49.88;24.67;;;;;;;7.90;97.70;95729.16;5082925;28;20398;-67
2021/11/15 08:23:03;;;;;;;42.00;24.77;;;;;;;8.01;97.58;95723.44;5081915;28;20712;-68
2021/11/15 08:26:04;;;;;;;47.97;23.27;;;;;;;8.26;97.90;95735.91;5085642;28;20036;-68
2021/11/15 08:28:32;;;;;;;30.30;17.48;;;;;;;8.42;93.65;95726.00;5088719;28;20036;-69
2021/11/15 08:31:00;;;;;;;26.00;13.82;;;;;;;8.66;90.74;95721.31;5089055;28;20497;-68
2021/11/15 08:33:28;;;;;;;22.95;12.77;;;;;;;8.86;88.13;95726.53;5085437;28;20445;-68
2021/11/15 08:35:56;;;;;;;23.60;12.60;;;;;;;8.93;87.00;95727.34;5085689;28;20425;-68
2021/11/15 08:38:41;;;;;;;20.20;10.77;;;;;;;9.07;86.86;95727.34;5083959;28;20090;-68
2021/11/15 08:41:08;;;;;;;17.77;10.98;;;;;;;9.12;85.86;95735.34;5085792;28;20554;-68
2021/11/15 08:43:36;;;;;;;24.88;12.07;;;;;;;9.16;84.40;95731.34;5087448;28;20044;-68
2021/11/15 08:46:06;;;;;;;19.77;10.85;;;;;;;9.11;84.52;95715.53;5091980;28;20044;-68
2021/11/15 08:48:34;;;;;;;19.83;10.95;;;;;;;9.23;84.56;95716.53;5085062;28;20424;-68
2021/11/15 08:51:05;;;;;;;17.48;10.77;;;;;;;9.31;83.13;95734.56;5082186;28;21062;-68
2021/11/15 08:53:32;;;;;;;19.50;11.10;;;;;;;9.43;83.52;95715.75;5085953;28;20065;-68
2021/11/15 08:55:59;;;;;;;21.23;12.27;;;;;;;9.42;84.05;95698.53;5089626;28;20047;-68
2021/11/15 08:58:26;;;;;;;18.55;10.73;;;;;;;9.51;82.75;95723.34;5092541;28;20173;-69
2021/11/15 09:15:07;;;;;;;16.83;8.77;;;;;;;9.30;82.01;95727.75;5109156;27;20146;-68
2021/11/15 09:17:34;;;;;;;15.50;8.38;;;;;;;9.48;82.93;95728.94;5120273;27;20047;-69
2021/11/15 09:20:03;;;;;;;20.55;10.77;;;;;;;9.43;80.98;95731.34;5127962;27;20472;-69
2021/11/15 09:22:30;;;;;;;14.40;8.93;;;;;;;9.30;81.40;95717.34;5126836;27;20044;-67
2021/11/15 09:24:58;;;;;;;19.35;9.93;;;;;;;9.38;81.27;95719.75;5120872;27;20039;-68
2021/11/15 09:27:26;;;;;;;16.08;9.15;;;;;;;9.48;81.82;95723.75;5127750;27;20466;-69
2021/11/15 09:29:55;;;;;;;17.10;9.77;;;;;;;9.82;80.51;95730.50;5119703;27;20047;-68
2021/11/15 09:32:23;;;;;;;21.23;9.45;;;;;;;9.68;80.88;95708.91;5129362;27;20417;-68
2021/11/15 09:34:51;;;;;;;18.83;10.50;;;;;;;9.63;80.20;95716.50;5110801;27;20051;-68
2021/11/15 09:37:19;;;;;;;18.48;10.82;;;;;;;9.50;80.21;95706.13;5125183;27;20031;-68
2021/11/15 09:39:48;;;;;;;17.30;9.90;;;;;;;9.80;79.42;95727.28;5125384;27;20108;-68
2021/11/15 09:42:17;;;;;;;17.65;9.95;;;;;;;9.80;79.74;95716.09;5126475;27;20032;-68
2021/11/15 09:44:44;;;;;;;13.35;8.60;;;;;;;10.13;79.25;95716.78;5121109;27;20496;-68
2021/11/15 09:47:12;;;;;;;16.63;8.60;;;;;;;10.36;76.72;95725.94;5125742;27;20039;-68
2021/11/15 09:49:38;;;;;;;14.13;8.02;;;;;;;10.43;76.93;95721.50;5117915;27;20719;-68
2021/11/15 09:52:08;;;;;;;16.35;8.43;;;;;;;10.63;76.46;95716.19;5104219;27;20072;-69
2021/11/15 09:54:37;;;;;;;17.58;10.43;;;;;;;10.92;76.82;95734.06;5118131;27;20552;-68
2021/11/15 09:57:24;;;;;;;17.48;10.32;;;;;;;11.19;74.33;95725.03;5119856;27;20047;-68
2021/11/15 09:59:51;;;;;;;17.02;10.20;;;;;;;11.91;71.48;95724.63;5121679;27;20054;-69
2021/11/15 10:02:18;;;;;;;17.08;8.90;;;;;;;12.18;69.95;95716.50;5117568;27;20058;-69
2021/11/15 10:04:45;;;;;;;16.20;9.80;;;;;;;11.90;69.10;95712.56;5120882;27;20136;-69
2021/11/15 10:07:13;;;;;;;12.60;7.80;;;;;;;11.90;68.58;95725.63;5127115;27;20043;-68
2021/11/15 10:09:42;;;;;;;17.10;9.68;;;;;;;11.89;67.11;95713.56;5123201;27;20047;-68
2021/11/15 10:12:13;;;;;;;14.68;8.23;;;;;;;12.57;65.48;95715.22;5126922;27;20035;-69
2021/11/15 10:15:05;;;;;;;17.40;9.23;;;;;;;12.77;66.00;95720.16;5120328;27;20048;-69
2021/11/15 10:17:44;;;;;;;11.93;7.63;;;;;;;13.22;60.74;95720.72;5124195;27;20097;-69
2021/11/15 10:20:13;;;;;;;12.73;8.18;;;;;;;12.90;60.28;95734.09;5118008;27;20036;-69
2021/11/15 10:22:42;;;;;;;12.25;8.07;;;;;;;11.76;62.69;95729.38;5119659;27;20039;-69
2021/11/15 10:25:09;;;;;;;17.13;9.52;;;;;;;11.50;64.24;95710.34;5114872;27;20031;-69
2021/11/15 10:27:37;;;;;;;15.52;8.15;;;;;;;11.55;64.20;95723.53;5109829;27;20116;-69
2021/11/15 10:30:13;;;;;;;10.65;7.28;;;;;;;11.06;65.88;95705.09;5107131;27;20074;-69
2021/11/15 10:32:43;;;;;;;13.73;7.93;;;;;;;10.97;66.41;95718.59;5108765;27;20122;-69
2021/11/15 10:35:10;;;;;;;14.13;8.68;;;;;;;10.71;66.86;95699.50;5103385;27;20051;-69
2021/11/15 10:37:40;;;;;;;12.18;7.47;;;;;;;10.71;68.56;95717.72;5108609;27;20048;-69
2021/11/15 10:40:12;;;;;;;17.83;8.52;;;;;;;10.76;67.73;95723.13;5110657;27;20047;-69
2021/11/15 10:42:44;;;;;;;15.57;8.63;;;;;;;10.72;67.12;95724.56;5108261;27;20046;-69
2021/11/15 10:45:20;;;;;;;14.93;7.72;;;;;;;10.75;66.76;95718.94;5107357;27;20501;-69
2021/11/15 10:47:54;;;;;;;14.77;8.13;;;;;;;10.68;67.46;95720.78;5107800;27;20097;-69
2021/11/15 10:50:49;;;;;;;11.85;8.05;;;;;;;10.64;66.49;95722.19;5104485;28;20582;-69
2021/11/15 10:53:24;;;;;;;18.15;8.90;;;;;;;10.65;67.08;95718.59;5103442;28;20447;-69
2021/11/15 10:56:20;;;;;;;13.40;7.85;;;;;;;10.70;66.95;95710.94;5105028;27;20047;-69
2021/11/15 10:58:52;;;;;;;19.02;9.57;;;;;;;10.80;65.53;95721.69;5098633;28;20516;-68
2021/11/15 11:01:20;;;;;;;16.00;8.65;;;;;;;10.71;65.98;95702.09;5099747;28;20512;-69
2021/11/15 11:03:52;;;;;;;12.80;8.75;;;;;;;10.86;65.43;95720.88;5100916;28;20043;-69
2021/11/15 11:06:19;;;;;;;14.95;8.63;;;;;;;10.94;64.70;95716.41;5082798;28;20047;-68
2021/11/15 11:08:49;;;;;;;11.20;7.72;;;;;;;11.00;65.23;95715.56;5104588;27;20036;-69
2021/11/15 11:11:29;;;;;;;14.43;8.35;;;;;;;10.96;65.20;95711.78;5103576;27;20043;-68
2021/11/15 11:14:04;;;;;;;12.40;9.13;;;;;;;10.88;64.96;95713.63;5073757;28;20044;-68
2021/11/15 11:16:50;;;;;;;15.30;8.48;;;;;;;10.97;66.25;95722.00;5069932;28;20052;-68
2021/11/15 11:19:36;;;;;;;15.25;8.27;;;;;;;11.05;63.81;95707.91;5069107;28;20045;-69
2021/11/15 11:25:09;;;;;;;16.35;8.85;;;;;;;11.05;63.98;95710.50;5071018;28;20117;-69
2021/11/15 11:27:36;;;;;;;13.52;8.15;;;;;;;11.10;64.05;95715.88;5078477;28;20048;-69
2021/11/15 11:30:06;;;;;;;14.30;8.05;;;;;;;11.07;64.50;95721.50;5078009;28;20521;-68
2021/11/15 11:32:33;;;;;;;11.82;8.02;;;;;;;10.83;65.00;95708.25;5076145;28;20048;-69
2021/11/15 11:35:04;;;;;;;15.15;8.73;;;;;;;10.90;64.71;95722.03;5070456;28;20046;-68
2021/11/15 11:37:30;;;;;;;15.05;7.82;;;;;;;10.75;64.28;95711.13;5073173;28;20044;-68
2021/11/15 11:40:01;;;;;;;15.68;8.80;;;;;;;10.78;65.51;95715.88;5072599;28;20044;-69
2021/11/15 11:42:28;;;;;;;13.88;7.72;;;;;;;10.75;65.82;95718.94;5069311;28;20055;-69
2021/11/15 11:44:56;;;;;;;15.15;7.95;;;;;;;10.69;65.06;95730.19;5069673;28;20520;-69
2021/11/15 11:47:28;;;;;;;12.10;7.20;;;;;;;10.64;66.24;95725.63;5068333;28;20043;-69